Time;durP1;ratioP1;P1;durP2;ratioP2;P2;SDS_P1;SDS_P2;PMS_P1;PMS_P2;Temp;Humidity;BMP_temperature;BMP_pressure;BME280_temperature;BME280_humidity;BME280_pressure;Samples;Min_cycle;Max_cycle;Signal;HPM_P1;HPM_P2
2023/08/25 00:00:09;;;;;;;3.20;2.60;;;;;;;;;;4993869;28;20058;-70
2023/08/25 00:02:35;;;;;;;3.35;2.30;;;;;;;;;;4987555;28;20084;-70
2023/08/25 00:05:01;;;;;;;3.50;2.58;;;;;;;;;;4987786;28;20038;-70
2023/08/25 00:07:26;;;;;;;3.00;2.70;;;;;;;;;;4981840;28;20108;-72
2023/08/25 00:09:52;;;;;;;2.75;2.22;;;;;;;;;;4978580;28;20042;-70
2023/08/25 00:12:17;;;;;;;2.88;2.55;;;;;;;;;;4968857;28;20049;-70
2023/08/25 00:14:42;;;;;;;3.80;2.67;;;;;;;;;;4990474;28;20050;-70
2023/08/25 00:17:09;;;;;;;4.22;3.00;;;;;;;;;;4972546;28;20049;-70
2023/08/25 00:19:34;;;;;;;6.22;3.28;;;;;;;;;;4989657;28;20063;-69
2023/08/25 00:22:00;;;;;;;7.38;3.10;;;;;;;;;;4959153;28;20550;-72
2023/08/25 00:24:25;;;;;;;3.88;2.67;;;;;;;;;;4966844;28;21070;-70
2023/08/25 00:26:51;;;;;;;4.35;2.90;;;;;;;;;;4979718;28;20419;-70
2023/08/25 00:29:17;;;;;;;2.75;2.40;;;;;;;;;;4973881;28;20041;-71
2023/08/25 00:31:42;;;;;;;3.28;2.50;;;;;;;;;;4988221;28;20120;-70
2023/08/25 00:34:08;;;;;;;2.60;2.40;;;;;;;;;;4981718;28;20045;-70
2023/08/25 00:36:33;;;;;;;2.60;2.40;;;;;;;;;;4976457;28;20477;-69
2023/08/25 00:38:58;;;;;;;3.67;2.50;;;;;;;;;;4987483;28;20495;-71
2023/08/25 00:41:24;;;;;;;3.88;2.90;;;;;;;;;;4993486;28;20058;-70
2023/08/25 00:43:49;;;;;;;4.07;2.80;;;;;;;;;;4991680;28;20041;-70
2023/08/25 00:46:17;;;;;;;3.78;2.97;;;;;;;;;;4970737;28;20042;-70
2023/08/25 00:48:43;;;;;;;3.17;2.80;;;;;;;;;;4987848;28;20057;-69
2023/08/25 00:51:11;;;;;;;3.25;2.65;;;;;;;;;;4968258;28;20169;-71
2023/08/25 00:53:38;;;;;;;3.70;2.88;;;;;;;;;;4988549;28;20896;-70
2023/08/25 00:56:03;;;;;;;2.42;2.22;;;;;;;;;;4983324;28;20050;-70
2023/08/25 00:58:29;;;;;;;2.95;2.10;;;;;;;;;;4985265;28;20424;-70
2023/08/25 01:00:55;;;;;;;3.50;2.30;;;;;;;;;;4990405;28;20120;-70
2023/08/25 01:03:22;;;;;;;2.40;2.20;;;;;;;;;;4989138;28;20057;-69
2023/08/25 01:05:48;;;;;;;2.50;2.30;;;;;;;;;;4953168;28;20829;-70
2023/08/25 01:08:16;;;;;;;3.80;2.88;;;;;;;;;;4983914;28;20034;-70
2023/08/25 01:10:50;;;;;;;3.40;2.50;;;;;;;;;;4988885;28;20044;-70
2023/08/25 01:13:23;;;;;;;3.08;2.40;;;;;;;;;;4985171;28;20052;-70
2023/08/25 01:15:53;;;;;;;2.70;2.08;;;;;;;;;;4994502;28;20118;-70
2023/08/25 01:18:25;;;;;;;3.38;2.20;;;;;;;;;;4951136;28;20046;-70
2023/08/25 01:20:52;;;;;;;5.60;2.85;;;;;;;;;;4980534;28;20045;-70
2023/08/25 01:23:44;;;;;;;2.95;2.08;;;;;;;;;;4988992;28;20689;-69
2023/08/25 01:26:10;;;;;;;2.65;2.45;;;;;;;;;;4979448;28;20076;-69
2023/08/25 01:28:41;;;;;;;3.45;2.42;;;;;;;;;;4975656;28;20049;-70
2023/08/25 01:31:07;;;;;;;7.05;3.10;;;;;;;;;;4963496;28;20047;-70
2023/08/25 01:33:33;;;;;;;3.85;2.70;;;;;;;;;;4977730;28;20034;-70
2023/08/25 01:36:23;;;;;;;2.90;2.63;;;;;;;;;;4974514;28;20136;-70
2023/08/25 01:38:57;;;;;;;3.38;2.30;;;;;;;;;;4976596;28;20092;-70
2023/08/25 01:41:29;;;;;;;5.60;2.80;;;;;;;;;;4957581;28;20053;-69
2023/08/25 01:43:56;;;;;;;4.65;3.05;;;;;;;;;;4979805;28;20077;-69
2023/08/25 01:46:22;;;;;;;5.38;2.97;;;;;;;;;;4981941;28;20502;-69
2023/08/25 01:48:51;;;;;;;2.47;2.20;;;;;;;;;;4989467;28;20045;-70
2023/08/25 01:51:17;;;;;;;3.08;2.40;;;;;;;;;;4984799;28;20478;-70
2023/08/25 01:53:51;;;;;;;3.55;2.90;;;;;;;;;;4969733;28;20049;-70
2023/08/25 01:56:16;;;;;;;3.80;2.20;;;;;;;;;;4953319;28;20066;-71
2023/08/25 01:58:42;;;;;;;2.92;2.30;;;;;;;;;;4994822;28;20080;-70
2023/08/25 02:01:07;;;;;;;2.55;2.35;;;;;;;;;;4981490;28;20262;-70
2023/08/25 02:03:32;;;;;;;3.33;2.60;;;;;;;;;;4979585;28;20438;-70
2023/08/25 02:05:58;;;;;;;3.47;2.90;;;;;;;;;;4984811;28;20085;-70
2023/08/25 02:08:23;;;;;;;3.10;2.58;;;;;;;;;;4977843;28;20049;-70
2023/08/25 02:10:49;;;;;;;3.20;3.00;;;;;;;;;;4966630;28;20047;-70
2023/08/25 02:13:15;;;;;;;4.47;3.22;;;;;;;;;;4984211;28;20065;-70
2023/08/25 02:15:48;;;;;;;2.95;2.30;;;;;;;;;;4984598;28;20049;-70
2023/08/25 02:18:14;;;;;;;3.03;2.20;;;;;;;;;;4959415;28;20300;-70
2023/08/25 02:20:39;;;;;;;3.55;3.03;;;;;;;;;;4991084;28;20056;-69
2023/08/25 02:23:05;;;;;;;3.90;3.05;;;;;;;;;;4969738;28;20057;-69
2023/08/25 02:25:31;;;;;;;3.53;2.70;;;;;;;;;;4963666;28;20466;-70
2023/08/25 02:27:57;;;;;;;3.72;3.00;;;;;;;;;;4983406;28;20065;-70
2023/08/25 02:30:22;;;;;;;3.08;2.60;;;;;;;;;;4985769;28;20623;-69
2023/08/25 02:32:48;;;;;;;5.72;4.32;;;;;;;;;;4972555;28;20162;-70
2023/08/25 02:35:13;;;;;;;2.88;2.60;;;;;;;;;;4973230;28;20061;-69
2023/08/25 02:37:56;;;;;;;8.38;4.55;;;;;;;;;;4958102;28;20050;-70
2023/08/25 02:40:22;;;;;;;4.93;3.17;;;;;;;;;;4984295;28;20049;-70
2023/08/25 02:42:47;;;;;;;3.63;3.33;;;;;;;;;;4982152;28;20046;-69
2023/08/25 02:45:13;;;;;;;5.82;4.40;;;;;;;;;;4980157;28;20046;-70
2023/08/25 02:47:38;;;;;;;3.95;3.13;;;;;;;;;;4980461;28;20053;-70
2023/08/25 02:50:04;;;;;;;3.10;2.85;;;;;;;;;;4968614;28;20036;-70
2023/08/25 02:52:29;;;;;;;3.35;2.70;;;;;;;;;;4983502;28;20033;-70
2023/08/25 02:54:54;;;;;;;3.78;2.85;;;;;;;;;;4984558;28;20517;-69
2023/08/25 02:57:20;;;;;;;3.60;2.90;;;;;;;;;;4987063;28;20088;-70
2023/08/25 02:59:45;;;;;;;4.53;3.72;;;;;;;;;;4980984;28;20053;-70
2023/08/25 03:02:11;;;;;;;4.07;3.22;;;;;;;;;;4970903;28;20050;-69
2023/08/25 03:04:36;;;;;;;3.72;2.80;;;;;;;;;;4964637;28;20049;-70
2023/08/25 03:07:02;;;;;;;4.68;3.47;;;;;;;;;;4984661;28;20061;-70
2023/08/25 03:09:27;;;;;;;5.45;3.38;;;;;;;;;;4965093;28;20136;-70
2023/08/25 03:11:53;;;;;;;3.20;2.92;;;;;;;;;;4978590;28;20050;-70
2023/08/25 03:14:18;;;;;;;3.75;3.45;;;;;;;;;;4985812;28;20092;-70
2023/08/25 03:16:44;;;;;;;5.03;3.42;;;;;;;;;;4987480;28;20046;-70
2023/08/25 03:19:09;;;;;;;4.57;4.10;;;;;;;;;;4969669;28;20050;-71
2023/08/25 03:21:35;;;;;;;5.93;4.60;;;;;;;;;;4993408;28;20041;-70
2023/08/25 03:24:00;;;;;;;5.82;5.25;;;;;;;;;;4987661;28;20046;-70
2023/08/25 03:26:27;;;;;;;4.68;4.13;;;;;;;;;;4979438;28;20449;-70
2023/08/25 03:28:52;;;;;;;4.70;3.28;;;;;;;;;;4988052;28;20046;-70
2023/08/25 03:31:18;;;;;;;6.65;4.00;;;;;;;;;;4985188;28;20473;-70
2023/08/25 03:33:43;;;;;;;5.72;4.50;;;;;;;;;;4961297;28;20500;-70
2023/08/25 03:36:08;;;;;;;3.75;3.33;;;;;;;;;;4986237;28;20165;-70
2023/08/25 03:38:34;;;;;;;5.07;4.00;;;;;;;;;;4987848;28;20046;-70
2023/08/25 03:41:00;;;;;;;6.00;4.35;;;;;;;;;;4984222;28;20042;-70
2023/08/25 03:43:26;;;;;;;4.22;3.80;;;;;;;;;;4991905;28;20042;-69
2023/08/25 03:45:51;;;;;;;5.07;4.32;;;;;;;;;;4996342;28;20056;-70
2023/08/25 03:48:16;;;;;;;7.95;5.18;;;;;;;;;;4955787;28;20049;-70
2023/08/25 03:50:47;;;;;;;3.90;3.60;;;;;;;;;;4992730;28;20144;-70
2023/08/25 03:53:13;;;;;;;4.45;3.70;;;;;;;;;;4966199;28;20046;-70
2023/08/25 03:55:38;;;;;;;4.20;3.00;;;;;;;;;;4978028;28;20045;-70
2023/08/25 03:58:04;;;;;;;4.28;3.83;;;;;;;;;;4991560;28;20115;-69
2023/08/25 04:00:29;;;;;;;3.80;3.42;;;;;;;;;;4995715;28;20041;-70
2023/08/25 04:02:54;;;;;;;3.75;3.45;;;;;;;;;;4964406;28;20157;-70
2023/08/25 04:05:20;;;;;;;6.20;4.97;;;;;;;;;;4986986;28;20034;-70
2023/08/25 04:07:45;;;;;;;5.93;5.28;;;;;;;;;;4986574;28;20042;-70
2023/08/25 04:10:10;;;;;;;6.32;4.88;;;;;;;;;;4985940;28;20038;-70
2023/08/25 04:12:36;;;;;;;6.65;4.90;;;;;;;;;;4970193;28;20582;-69
2023/08/25 04:15:01;;;;;;;7.10;5.47;;;;;;;;;;4970050;28;20399;-69
2023/08/25 04:17:27;;;;;;;6.20;5.00;;;;;;;;;;4953399;28;20049;-70
2023/08/25 04:19:52;;;;;;;5.55;4.97;;;;;;;;;;4982434;28;20057;-70
2023/08/25 04:22:17;;;;;;;7.97;5.32;;;;;;;;;;4993568;28;20119;-70
2023/08/25 04:24:43;;;;;;;7.70;5.45;;;;;;;;;;4979646;28;20463;-70
2023/08/25 04:27:08;;;;;;;7.63;5.38;;;;;;;;;;4984638;28;20285;-69
2023/08/25 04:29:34;;;;;;;7.38;4.85;;;;;;;;;;4994698;28;20045;-70
2023/08/25 04:31:59;;;;;;;4.63;4.00;;;;;;;;;;4967791;28;20726;-70
2023/08/25 04:34:24;;;;;;;4.30;3.90;;;;;;;;;;4950897;28;20050;-69
2023/08/25 04:36:50;;;;;;;5.28;4.30;;;;;;;;;;4964260;28;20651;-69
2023/08/25 04:39:15;;;;;;;3.85;3.45;;;;;;;;;;4975650;28;20042;-69
2023/08/25 04:41:41;;;;;;;5.00;3.83;;;;;;;;;;4975543;28;20349;-70
2023/08/25 04:44:07;;;;;;;4.20;3.58;;;;;;;;;;4980813;28;20061;-70
2023/08/25 04:46:32;;;;;;;5.10;4.13;;;;;;;;;;4962520;28;20132;-70
2023/08/25 04:48:58;;;;;;;3.67;3.38;;;;;;;;;;4988741;28;20046;-70
2023/08/25 04:51:23;;;;;;;4.35;3.95;;;;;;;;;;4985847;28;20296;-70
2023/08/25 04:53:49;;;;;;;4.75;3.78;;;;;;;;;;4982225;28;20042;-70
2023/08/25 04:56:15;;;;;;;4.57;3.83;;;;;;;;;;4986897;28;20491;-70
2023/08/25 04:58:40;;;;;;;4.35;3.65;;;;;;;;;;4973088;28;20133;-70
2023/08/25 05:01:06;;;;;;;8.18;5.65;;;;;;;;;;4971445;28;20120;-70
2023/08/25 05:03:31;;;;;;;4.03;3.70;;;;;;;;;;4991532;28;20125;-70
2023/08/25 05:05:57;;;;;;;4.65;4.20;;;;;;;;;;4988914;28;20057;-70
2023/08/25 05:08:22;;;;;;;7.30;5.82;;;;;;;;;;4989255;28;20058;-69
2023/08/25 05:10:47;;;;;;;5.13;4.60;;;;;;;;;;4989004;28;20053;-70
2023/08/25 05:13:13;;;;;;;4.07;3.78;;;;;;;;;;4984943;28;20512;-69
2023/08/25 05:15:39;;;;;;;9.38;6.30;;;;;;;;;;4971482;28;20038;-70
2023/08/25 05:18:04;;;;;;;5.03;4.05;;;;;;;;;;4985570;28;20037;-70
2023/08/25 05:20:30;;;;;;;4.63;4.20;;;;;;;;;;4984149;28;20050;-71
2023/08/25 05:22:55;;;;;;;11.38;6.35;;;;;;;;;;4983272;28;20578;-70
2023/08/25 05:25:20;;;;;;;6.53;5.07;;;;;;;;;;4956772;28;20057;-71
2023/08/25 05:27:47;;;;;;;4.28;3.88;;;;;;;;;;4973814;28;20050;-69
2023/08/25 05:30:13;;;;;;;8.48;5.78;;;;;;;;;;4950237;28;20045;-69
2023/08/25 05:32:38;;;;;;;7.25;5.30;;;;;;;;;;4977428;28;20064;-70
2023/08/25 05:35:04;;;;;;;6.22;5.25;;;;;;;;;;4982972;28;20673;-70
2023/08/25 05:37:30;;;;;;;11.52;6.13;;;;;;;;;;4987721;28;20042;-70
2023/08/25 05:39:55;;;;;;;9.52;6.00;;;;;;;;;;4979150;28;20129;-70
2023/08/25 05:42:21;;;;;;;11.10;5.30;;;;;;;;;;4972763;28;20144;-70
2023/08/25 05:44:46;;;;;;;8.05;5.40;;;;;;;;;;4965409;28;20042;-71
2023/08/25 05:47:11;;;;;;;7.93;6.40;;;;;;;;;;4984750;28;20084;-70
2023/08/25 05:49:37;;;;;;;9.05;5.90;;;;;;;;;;4973016;28;20040;-70
2023/08/25 05:52:03;;;;;;;8.70;5.78;;;;;;;;;;4982335;28;20206;-70
2023/08/25 05:54:28;;;;;;;7.15;5.57;;;;;;;;;;4986703;28;20052;-70
2023/08/25 05:56:53;;;;;;;6.28;5.03;;;;;;;;;;4971116;28;20068;-70
2023/08/25 05:59:19;;;;;;;6.45;5.68;;;;;;;;;;4966801;28;20046;-70
2023/08/25 06:01:45;;;;;;;7.35;5.82;;;;;;;;;;4977156;28;20419;-69
2023/08/25 06:04:11;;;;;;;12.07;6.00;;;;;;;;;;4984937;28;20042;-70
2023/08/25 06:06:38;;;;;;;10.20;6.15;;;;;;;;;;4982977;28;20042;-70
2023/08/25 06:09:04;;;;;;;4.88;3.72;;;;;;;;;;4982884;28;20749;-71
2023/08/25 06:11:29;;;;;;;7.25;5.95;;;;;;;;;;4962899;28;20042;-70
2023/08/25 06:13:55;;;;;;;10.68;6.00;;;;;;;;;;4958877;28;20108;-70
2023/08/25 06:16:20;;;;;;;8.07;6.30;;;;;;;;;;4985098;28;20048;-70
2023/08/25 06:18:46;;;;;;;9.02;6.07;;;;;;;;;;4988543;28;20127;-69
2023/08/25 06:21:11;;;;;;;9.52;6.47;;;;;;;;;;4987805;28;20036;-70
2023/08/25 06:23:37;;;;;;;7.78;6.10;;;;;;;;;;4965572;28;20096;-70
2023/08/25 06:26:02;;;;;;;3.38;2.85;;;;;;;;;;4953193;28;20042;-70
2023/08/25 06:28:27;;;;;;;8.15;5.63;;;;;;;;;;4956046;28;20705;-70
2023/08/25 06:30:53;;;;;;;5.65;4.68;;;;;;;;;;4976283;28;20060;-70
2023/08/25 06:33:18;;;;;;;7.88;6.47;;;;;;;;;;4978110;28;20180;-70
2023/08/25 06:35:44;;;;;;;8.60;6.88;;;;;;;;;;4985179;23;20062;-77
2023/08/25 06:38:09;;;;;;;9.63;6.03;;;;;;;;;;4947339;28;20046;-75
2023/08/25 06:40:35;;;;;;;3.88;3.45;;;;;;;;;;4957960;28;20517;-76
2023/08/25 06:43:03;;;;;;;4.55;4.10;;;;;;;;;;4957517;28;20671;-77
2023/08/25 06:45:30;;;;;;;7.47;4.38;;;;;;;;;;4972144;28;20065;-76
2023/08/25 06:47:56;;;;;;;5.53;4.25;;;;;;;;;;4952698;28;20046;-76
2023/08/25 06:50:22;;;;;;;6.10;4.93;;;;;;;;;;4944428;28;20042;-76
2023/08/25 06:52:48;;;;;;;6.22;5.57;;;;;;;;;;4958077;28;20068;-77
2023/08/25 06:55:16;;;;;;;7.43;5.50;;;;;;;;;;4943026;28;20042;-75
2023/08/25 06:57:41;;;;;;;5.25;4.72;;;;;;;;;;4961870;28;20050;-76
2023/08/25 07:00:07;;;;;;;6.60;5.32;;;;;;;;;;4950017;28;20039;-76
2023/08/25 07:02:33;;;;;;;6.15;5.38;;;;;;;;;;4967870;28;20069;-76
2023/08/25 07:04:58;;;;;;;5.57;5.05;;;;;;;;;;4965780;28;20571;-76
2023/08/25 07:07:25;;;;;;;5.45;3.80;;;;;;;;;;4968251;28;20109;-76
2023/08/25 07:09:51;;;;;;;5.45;3.72;;;;;;;;;;4948237;28;20049;-77
2023/08/25 07:12:17;;;;;;;4.63;4.13;;;;;;;;;;4951825;28;20038;-76
2023/08/25 07:14:43;;;;;;;7.57;5.43;;;;;;;;;;4975993;28;20525;-76
2023/08/25 07:17:08;;;;;;;6.72;3.80;;;;;;;;;;4975836;28;20120;-75
2023/08/25 07:19:34;;;;;;;6.88;4.82;;;;;;;;;;4969323;28;20165;-76
2023/08/25 07:21:59;;;;;;;5.53;4.50;;;;;;;;;;4962175;28;20042;-75
2023/08/25 07:24:25;;;;;;;6.07;4.07;;;;;;;;;;4957585;28;20049;-75
2023/08/25 07:26:50;;;;;;;5.60;4.50;;;;;;;;;;4951140;28;20602;-76
2023/08/25 07:29:16;;;;;;;5.00;4.55;;;;;;;;;;4978338;28;20039;-75
2023/08/25 07:31:41;;;;;;;5.10;4.60;;;;;;;;;;4970041;28;20043;-76
2023/08/25 07:34:07;;;;;;;5.38;4.60;;;;;;;;;;4970669;28;20157;-75
2023/08/25 07:36:32;;;;;;;4.93;4.53;;;;;;;;;;4973465;28;20046;-76
2023/08/25 07:38:57;;;;;;;7.75;5.03;;;;;;;;;;4947492;28;20089;-76
2023/08/25 07:41:23;;;;;;;5.65;4.57;;;;;;;;;;4953725;28;20418;-76
2023/08/25 07:43:48;;;;;;;5.07;4.60;;;;;;;;;;4972299;28;20071;-75
2023/08/25 07:46:14;;;;;;;5.97;4.57;;;;;;;;;;4962800;28;20046;-77
2023/08/25 07:48:40;;;;;;;4.82;3.88;;;;;;;;;;4953104;28;20054;-76
2023/08/25 07:51:05;;;;;;;3.78;3.38;;;;;;;;;;4973202;28;20561;-76
2023/08/25 07:53:31;;;;;;;4.00;3.70;;;;;;;;;;4946399;28;20041;-76
2023/08/25 07:55:58;;;;;;;4.53;4.13;;;;;;;;;;4974954;28;20061;-76
2023/08/25 07:58:24;;;;;;;6.75;4.60;;;;;;;;;;4980872;28;20840;-76
2023/08/25 08:00:50;;;;;;;5.80;4.10;;;;;;;;;;4983881;28;20060;-76
2023/08/25 08:03:15;;;;;;;4.97;4.13;;;;;;;;;;4973004;28;20038;-76
2023/08/25 08:05:41;;;;;;;8.35;5.07;;;;;;;;;;4966417;28;20038;-76
2023/08/25 08:08:09;;;;;;;4.35;3.95;;;;;;;;;;4971602;28;20070;-75
2023/08/25 08:10:37;;;;;;;4.43;4.03;;;;;;;;;;4939867;28;20054;-76
2023/08/25 08:13:03;;;;;;;3.85;3.55;;;;;;;;;;4965726;28;20053;-76
2023/08/25 08:15:30;;;;;;;5.68;4.28;;;;;;;;;;4966512;28;20042;-76
2023/08/25 08:17:55;;;;;;;7.32;4.10;;;;;;;;;;4954061;28;20045;-76
2023/08/25 08:20:21;;;;;;;5.68;3.97;;;;;;;;;;4959344;28;20189;-76
2023/08/25 08:22:46;;;;;;;5.95;4.38;;;;;;;;;;4957384;28;20104;-76
2023/08/25 08:25:14;;;;;;;5.55;3.80;;;;;;;;;;4973345;28;20042;-77
2023/08/25 08:27:41;;;;;;;3.92;3.30;;;;;;;;;;4974361;28;20038;-76
2023/08/25 08:30:07;;;;;;;3.65;3.35;;;;;;;;;;4955050;28;20722;-76
2023/08/25 08:32:36;;;;;;;5.38;4.18;;;;;;;;;;4971282;28;20517;-77
2023/08/25 08:35:09;;;;;;;3.45;3.15;;;;;;;;;;4963990;28;20042;-76
2023/08/25 08:37:38;;;;;;;5.32;4.00;;;;;;;;;;4927188;28;20093;-76
2023/08/25 08:40:05;;;;;;;5.13;3.28;;;;;;;;;;4968022;28;20045;-76
2023/08/25 08:42:32;;;;;;;4.40;4.00;;;;;;;;;;4969430;28;20411;-77
2023/08/25 08:45:03;;;;;;;4.95;3.95;;;;;;;;;;4972762;28;20099;-76
2023/08/25 08:47:29;;;;;;;4.93;4.15;;;;;;;;;;4959011;28;20073;-76
2023/08/25 08:49:57;;;;;;;4.18;3.78;;;;;;;;;;4942244;28;20038;-77
2023/08/25 08:52:22;;;;;;;5.55;5.05;;;;;;;;;;4970353;28;20545;-76
2023/08/25 08:54:48;;;;;;;6.80;5.28;;;;;;;;;;4971466;28;20058;-76
2023/08/25 08:57:14;;;;;;;7.45;4.60;;;;;;;;;;4969740;28;20034;-76
2023/08/25 08:59:42;;;;;;;5.63;4.95;;;;;;;;;;4970794;28;20053;-76
2023/08/25 09:02:08;;;;;;;5.05;3.80;;;;;;;;;;4957756;28;20081;-77
2023/08/25 09:04:36;;;;;;;4.82;4.10;;;;;;;;;;4926712;28;20043;-76
2023/08/25 09:07:03;;;;;;;3.90;3.60;;;;;;;;;;4975761;28;20081;-76
2023/08/25 09:09:29;;;;;;;5.30;4.80;;;;;;;;;;4973234;28;20081;-76
2023/08/25 09:11:54;;;;;;;5.05;4.40;;;;;;;;;;4953421;28;20042;-76
2023/08/25 09:14:26;;;;;;;7.13;5.30;;;;;;;;;;4961073;28;20030;-76
2023/08/25 09:16:56;;;;;;;6.20;4.93;;;;;;;;;;4958802;28;20065;-77
2023/08/25 09:19:22;;;;;;;4.90;4.40;;;;;;;;;;4972976;28;20045;-76
2023/08/25 09:21:47;;;;;;;5.45;4.18;;;;;;;;;;4962322;28;20038;-77
2023/08/25 09:24:21;;;;;;;5.30;4.80;;;;;;;;;;4968998;28;20037;-76
2023/08/25 09:26:48;;;;;;;4.35;3.95;;;;;;;;;;4949486;28;20561;-76
2023/08/25 09:29:13;;;;;;;5.85;4.57;;;;;;;;;;4950560;28;20061;-76
2023/08/25 09:31:39;;;;;;;4.28;3.80;;;;;;;;;;4974849;28;20066;-76
2023/08/25 09:34:07;;;;;;;6.00;4.70;;;;;;;;;;4971296;28;20525;-76
2023/08/25 09:36:33;;;;;;;5.97;4.78;;;;;;;;;;4949746;28;20038;-76
2023/08/25 09:39:01;;;;;;;5.25;4.80;;;;;;;;;;4971274;28;20092;-76
2023/08/25 09:41:29;;;;;;;3.67;3.40;;;;;;;;;;4945116;28;20030;-76
2023/08/25 09:43:59;;;;;;;4.93;3.55;;;;;;;;;;4942688;28;20046;-76
2023/08/25 09:46:32;;;;;;;4.67;4.27;;;;;;;;;;4936461;28;20130;-76
2023/08/25 09:49:08;;;;;;;3.40;3.10;;;;;;;;;;4966122;28;20067;-76
2023/08/25 09:51:44;;;;;;;5.38;4.03;;;;;;;;;;4955139;28;20091;-77
2023/08/25 09:54:16;;;;;;;4.72;4.22;;;;;;;;;;4944633;28;20045;-76
2023/08/25 09:56:43;;;;;;;5.47;4.70;;;;;;;;;;4968222;28;20096;-76
2023/08/25 09:59:10;;;;;;;3.30;3.05;;;;;;;;;;4976708;28;20045;-77
2023/08/25 10:01:39;;;;;;;6.15;3.97;;;;;;;;;;4954407;28;20042;-76
2023/08/25 10:04:05;;;;;;;4.78;4.03;;;;;;;;;;4978032;28;20038;-76
2023/08/25 10:06:32;;;;;;;5.80;4.43;;;;;;;;;;4959460;28;20045;-76
2023/08/25 10:08:58;;;;;;;4.45;4.05;;;;;;;;;;4968009;28;20037;-76
2023/08/25 10:11:28;;;;;;;4.38;3.97;;;;;;;;;;4974497;28;20034;-76
2023/08/25 10:13:55;;;;;;;3.58;3.28;;;;;;;;;;4964180;28;20042;-76
2023/08/25 10:16:24;;;;;;;4.80;4.40;;;;;;;;;;4965322;28;20410;-77
2023/08/25 10:18:50;;;;;;;5.40;3.30;;;;;;;;;;4977371;28;20046;-76
2023/08/25 10:21:18;;;;;;;3.97;3.60;;;;;;;;;;4960079;28;20053;-76
2023/08/25 10:23:46;;;;;;;4.75;4.30;;;;;;;;;;4972604;28;20162;-76
2023/08/25 10:26:12;;;;;;;4.55;4.18;;;;;;;;;;4946548;28;20068;-76
2023/08/25 10:28:38;;;;;;;3.90;3.50;;;;;;;;;;4962204;28;20568;-76
2023/08/25 10:31:05;;;;;;;3.75;3.30;;;;;;;;;;4968917;28;20143;-76
2023/08/25 10:33:50;;;;;;;4.05;3.75;;;;;;;;;;4953845;28;20048;-76
2023/08/25 10:36:18;;;;;;;6.00;5.10;;;;;;;;;;4962449;28;20046;-76
2023/08/25 10:39:06;;;;;;;5.10;4.05;;;;;;;;;;4973915;28;20494;-76
2023/08/25 10:41:39;;;;;;;3.45;3.15;;;;;;;;;;4967566;28;20054;-76
2023/08/25 10:44:10;;;;;;;6.45;4.95;;;;;;;;;;4955372;28;20094;-76
2023/08/25 10:46:38;;;;;;;5.93;4.75;;;;;;;;;;4954401;28;20659;-77
2023/08/25 10:49:07;;;;;;;7.85;5.03;;;;;;;;;;4964604;28;20045;-76
2023/08/25 10:51:36;;;;;;;4.57;3.75;;;;;;;;;;4971830;28;20045;-76
2023/08/25 10:54:02;;;;;;;4.53;4.13;;;;;;;;;;4950943;28;20061;-76
2023/08/25 10:56:28;;;;;;;3.80;3.50;;;;;;;;;;4955799;28;20596;-76
2023/08/25 10:59:11;;;;;;;5.95;5.43;;;;;;;;;;4954467;28;20065;-76
2023/08/25 11:01:36;;;;;;;8.10;5.88;;;;;;;;;;4972867;28;20426;-76
2023/08/25 11:04:04;;;;;;;5.70;4.82;;;;;;;;;;4983407;28;20042;-76
2023/08/25 11:06:41;;;;;;;4.90;4.20;;;;;;;;;;4987876;28;20451;-76
2023/08/25 11:09:09;;;;;;;4.97;4.07;;;;;;;;;;4946835;28;20042;-77
2023/08/25 11:11:41;;;;;;;6.07;4.25;;;;;;;;;;4947866;28;20045;-76
2023/08/25 11:14:07;;;;;;;4.10;3.25;;;;;;;;;;4950921;28;20062;-76
2023/08/25 11:16:34;;;;;;;5.50;5.00;;;;;;;;;;4974233;28;20104;-76
2023/08/25 11:19:00;;;;;;;5.88;4.60;;;;;;;;;;4956807;28;20073;-75
2023/08/25 11:21:26;;;;;;;5.00;4.45;;;;;;;;;;4970577;28;20034;-76
2023/08/25 11:23:52;;;;;;;4.00;3.60;;;;;;;;;;4971004;28;20061;-77
2023/08/25 11:26:18;;;;;;;3.72;3.40;;;;;;;;;;4962633;28;20534;-76
2023/08/25 11:28:50;;;;;;;6.35;4.90;;;;;;;;;;4955151;28;20060;-77
2023/08/25 11:31:17;;;;;;;4.70;4.22;;;;;;;;;;4968129;28;20061;-77
2023/08/25 11:33:44;;;;;;;5.63;4.53;;;;;;;;;;4973386;28;20054;-75
2023/08/25 11:36:15;;;;;;;5.70;4.80;;;;;;;;;;4968614;28;20042;-76
2023/08/25 11:38:41;;;;;;;5.65;4.45;;;;;;;;;;4980688;28;20122;-76
2023/08/25 11:41:06;;;;;;;5.00;4.60;;;;;;;;;;4984004;28;20680;-76
2023/08/25 11:43:36;;;;;;;5.50;5.00;;;;;;;;;;4979373;28;20066;-76
2023/08/25 11:46:05;;;;;;;5.35;4.85;;;;;;;;;;4970799;28;20450;-76
2023/08/25 11:48:32;;;;;;;5.03;4.53;;;;;;;;;;4963964;28;20133;-78
2023/08/25 11:50:58;;;;;;;4.28;3.88;;;;;;;;;;4963776;28;20081;-77
2023/08/25 11:53:23;;;;;;;4.30;3.90;;;;;;;;;;4972161;28;20472;-77
2023/08/25 11:55:58;;;;;;;5.18;3.60;;;;;;;;;;4953302;28;20060;-76
2023/08/25 11:58:31;;;;;;;4.28;3.88;;;;;;;;;;4967705;28;20175;-77
2023/08/25 12:01:05;;;;;;;5.20;4.70;;;;;;;;;;4960712;28;20042;-76
2023/08/25 12:03:30;;;;;;;4.45;4.10;;;;;;;;;;4980273;28;20841;-76
2023/08/25 12:05:55;;;;;;;3.88;3.58;;;;;;;;;;4978940;28;20058;-77
2023/08/25 12:08:24;;;;;;;4.30;3.92;;;;;;;;;;4969255;28;20034;-77
2023/08/25 12:10:50;;;;;;;3.75;3.45;;;;;;;;;;4968102;28;20529;-76
2023/08/25 12:13:23;;;;;;;3.95;3.65;;;;;;;;;;4958712;28;20068;-76
2023/08/25 12:15:53;;;;;;;5.72;4.97;;;;;;;;;;4963604;28;20045;-77
2023/08/25 12:18:20;;;;;;;5.35;4.57;;;;;;;;;;4970296;28;20438;-76
2023/08/25 12:20:46;;;;;;;5.47;4.97;;;;;;;;;;4968396;28;20069;-76
2023/08/25 12:23:11;;;;;;;6.07;5.45;;;;;;;;;;4968968;28;20050;-76
2023/08/25 12:25:37;;;;;;;6.03;4.70;;;;;;;;;;4971458;28;20159;-77
2023/08/25 12:28:03;;;;;;;9.50;5.15;;;;;;;;;;4976011;28;20467;-77
2023/08/25 12:30:30;;;;;;;6.25;5.10;;;;;;;;;;4960262;28;20065;-77
2023/08/25 12:32:55;;;;;;;4.57;4.18;;;;;;;;;;4966826;28;20058;-75
2023/08/25 12:35:22;;;;;;;5.53;4.68;;;;;;;;;;4969089;28;20799;-76
2023/08/25 12:37:48;;;;;;;4.28;3.88;;;;;;;;;;4966985;28;20042;-77
2023/08/25 12:40:20;;;;;;;7.00;5.13;;;;;;;;;;4985122;28;20548;-77
2023/08/25 12:42:51;;;;;;;5.13;4.57;;;;;;;;;;4954982;28;20054;-76
2023/08/25 12:45:17;;;;;;;4.43;4.03;;;;;;;;;;4989818;28;20121;-77
2023/08/25 12:47:43;;;;;;;5.63;5.05;;;;;;;;;;4978507;28;20058;-76
2023/08/25 12:50:08;;;;;;;5.47;4.88;;;;;;;;;;4952647;28;20518;-77
2023/08/25 12:52:36;;;;;;;4.93;4.45;;;;;;;;;;4970923;28;20045;-77
2023/08/25 12:55:02;;;;;;;3.95;3.65;;;;;;;;;;4959484;28;20125;-77
2023/08/25 12:57:27;;;;;;;5.28;4.75;;;;;;;;;;4960821;28;20582;-76
2023/08/25 12:59:52;;;;;;;5.82;5.20;;;;;;;;;;4955701;28;20050;-76
2023/08/25 13:02:18;;;;;;;5.05;3.90;;;;;;;;;;4976814;28;20057;-76
2023/08/25 13:04:43;;;;;;;6.68;5.38;;;;;;;;;;4968800;28;20069;-77
2023/08/25 13:07:09;;;;;;;5.03;4.45;;;;;;;;;;4966855;28;20048;-76
2023/08/25 13:09:35;;;;;;;4.25;3.80;;;;;;;;;;4957586;28;20027;-76
2023/08/25 13:12:01;;;;;;;5.90;5.30;;;;;;;;;;4959232;28;20049;-76
2023/08/25 13:14:26;;;;;;;5.03;4.60;;;;;;;;;;4969712;28;20045;-76
2023/08/25 13:16:52;;;;;;;7.28;5.80;;;;;;;;;;4969061;28;20549;-76
2023/08/25 13:19:18;;;;;;;5.47;3.80;;;;;;;;;;4972327;28;20035;-76
2023/08/25 13:21:43;;;;;;;4.78;4.32;;;;;;;;;;4974165;28;20078;-76
2023/08/25 13:24:09;;;;;;;8.50;5.10;;;;;;;;;;4955189;28;20054;-77
2023/08/25 13:26:34;;;;;;;5.82;5.22;;;;;;;;;;4942100;28;20049;-76
2023/08/25 13:29:02;;;;;;;7.75;5.20;;;;;;;;;;4975689;28;20122;-77
2023/08/25 13:31:28;;;;;;;5.97;5.38;;;;;;;;;;4966693;28;20034;-76
2023/08/25 13:33:54;;;;;;;6.40;5.72;;;;;;;;;;4975011;28;20801;-76
2023/08/25 13:36:21;;;;;;;7.45;5.50;;;;;;;;;;4974876;28;20666;-75
2023/08/25 13:38:46;;;;;;;5.95;5.32;;;;;;;;;;4958854;28;20049;-76
2023/08/25 13:41:12;;;;;;;5.55;5.05;;;;;;;;;;4946017;28;20048;-75
2023/08/25 13:43:39;;;;;;;4.22;3.75;;;;;;;;;;4973936;28;20061;-77
2023/08/25 13:46:06;;;;;;;4.15;3.70;;;;;;;;;;4972826;28;20824;-76
2023/08/25 13:48:32;;;;;;;4.53;4.13;;;;;;;;;;4968104;28;20046;-76
2023/08/25 13:50:58;;;;;;;4.50;3.92;;;;;;;;;;4971419;28;20093;-77
2023/08/25 13:53:24;;;;;;;6.30;4.60;;;;;;;;;;4966212;28;21322;-77
2023/08/25 13:55:49;;;;;;;4.03;3.67;;;;;;;;;;4985623;28;20069;-76
2023/08/25 13:58:15;;;;;;;4.53;4.13;;;;;;;;;;4976977;28;20113;-76
2023/08/25 14:00:40;;;;;;;7.65;4.60;;;;;;;;;;4969547;28;20045;-76
2023/08/25 14:03:06;;;;;;;5.95;5.20;;;;;;;;;;4966433;28;20699;-77
2023/08/25 14:05:31;;;;;;;4.65;4.25;;;;;;;;;;4977746;28;20038;-77
2023/08/25 14:07:57;;;;;;;3.63;3.17;;;;;;;;;;4949371;28;20066;-77
2023/08/25 14:10:25;;;;;;;6.82;3.55;;;;;;;;;;4956320;28;20033;-77
2023/08/25 14:12:51;;;;;;;4.18;3.88;;;;;;;;;;4977369;28;20531;-76
2023/08/25 14:15:18;;;;;;;4.35;3.97;;;;;;;;;;4970755;28;20139;-76
2023/08/25 14:17:43;;;;;;;4.18;3.88;;;;;;;;;;4968369;28;20054;-77
2023/08/25 14:20:09;;;;;;;5.35;4.95;;;;;;;;;;4968356;28;20069;-77
2023/08/25 14:22:35;;;;;;;5.40;4.60;;;;;;;;;;4931203;28;20048;-77
2023/08/25 14:25:00;;;;;;;5.82;4.85;;;;;;;;;;4966850;28;20117;-76
2023/08/25 14:27:26;;;;;;;4.50;4.10;;;;;;;;;;4969581;28;20045;-76
2023/08/25 14:29:52;;;;;;;5.95;5.05;;;;;;;;;;4968476;28;20043;-76
2023/08/25 14:32:17;;;;;;;3.63;3.33;;;;;;;;;;4969484;28;20053;-77
2023/08/25 14:34:43;;;;;;;4.90;3.63;;;;;;;;;;4965328;28;20425;-77
2023/08/25 14:37:08;;;;;;;5.22;4.72;;;;;;;;;;4954704;28;20045;-77
2023/08/25 14:39:34;;;;;;;4.13;3.67;;;;;;;;;;4974302;28;20041;-76